Time;durP1;ratioP1;P1;durP2;ratioP2;P2;SDS_P1;SDS_P2;PMS_P1;PMS_P2;Temp;Humidity;BMP_temperature;BMP_pressure;BME280_temperature;BME280_humidity;BME280_pressure;Samples;Min_cycle;Max_cycle;Signal;HPM_P1;HPM_P2
2023/01/04 00:00:38;;;;;;;8.65;3.60;;;;;;;;;;6305487;22;20088;-85
2023/01/04 00:03:23;;;;;;;8.90;2.85;;;;;;;;;;6307032;22;20065;-85
2023/01/04 00:06:10;;;;;;;8.90;3.22;;;8.20;99.90;;;;;;6306419;22;20413;-85
2023/01/04 00:08:55;;;;;;;10.43;3.00;;;;;;;;;;6304899;22;20014;-85
2023/01/04 00:11:39;;;;;;;8.18;3.05;;;;;;;;;;6305681;22;20100;-85
2023/01/04 00:14:24;;;;;;;10.88;2.45;;;;;;;;;;6305363;22;20061;-84
2023/01/04 00:17:08;;;;;;;9.20;3.15;;;;;;;;;;6306291;22;20112;-85
2023/01/04 00:19:53;;;;;;;9.43;3.25;;;;;;;;;;6283051;22;20065;-85
2023/01/04 00:22:37;;;;;;;10.95;3.03;;;;;;;;;;6283721;22;20022;-86
2023/01/04 00:25:21;;;;;;;7.63;2.92;;;;;;;;;;6306718;22;20076;-85
2023/01/04 00:28:06;;;;;;;7.50;2.72;;;;;;;;;;6285248;22;20497;-84
2023/01/04 00:30:51;;;;;;;10.30;3.13;;;;;;;;;;6307538;22;20116;-86
2023/01/04 00:33:36;;;;;;;8.27;2.78;;;;;;;;;;6308865;22;20015;-86
2023/01/04 00:36:21;;;;;;;10.00;3.15;;;;;;;;;;6307332;22;20015;-86
2023/01/04 00:39:08;;;;;;;8.32;3.28;;;;;;;;;;6308211;22;20337;-86
2023/01/04 00:42:03;;;;;;;12.77;3.58;;;;;;;;;;6307236;22;20019;-85
2023/01/04 00:44:48;;;;;;;10.20;3.83;;;;;;;;;;6287943;22;20034;-85
2023/01/04 00:47:33;;;;;;;12.60;4.45;;;;;;;;;;6308879;22;20405;-85
2023/01/04 00:50:17;;;;;;;10.00;3.42;;;;;;;;;;6308021;22;20121;-85
2023/01/04 00:53:02;;;;;;;9.25;3.08;;;;;;;;;;6308120;22;20086;-85
2023/01/04 00:55:46;;;;;;;9.40;3.78;;;;;;;;;;6307222;22;20058;-85
2023/01/04 00:58:31;;;;;;;8.90;3.30;;;;;;;;;;6307127;22;20015;-85
2023/01/04 01:01:15;;;;;;;6.35;2.75;;;;;;;;;;6308300;22;20087;-86
2023/01/04 01:04:01;;;;;;;9.15;3.20;;;;;;;;;;6307894;22;20030;-85
2023/01/04 01:06:46;;;;;;;12.98;3.67;;;;;;;;;;6308458;22;20081;-86
2023/01/04 01:09:30;;;;;;;15.02;4.03;;;;;;;;;;6308430;22;20034;-85
2023/01/04 01:12:15;;;;;;;8.88;3.42;;;;;;;;;;6308012;22;20018;-86
2023/01/04 01:14:59;;;;;;;8.57;3.10;;;;;;;;;;6307740;22;20089;-88
2023/01/04 01:17:44;;;;;;;10.27;3.45;;;;;;;;;;6308465;22;20018;-86
2023/01/04 01:20:28;;;;;;;6.13;2.92;;;;;;;;;;6306950;22;20451;-86
2023/01/04 01:23:13;;;;;;;6.95;2.88;;;;;;;;;;6284591;22;20338;-86
2023/01/04 01:26:05;;;;;;;7.07;2.80;;;;;;;;;;6308262;22;20031;-85
2023/01/04 01:28:51;;;;;;;5.82;3.28;;;;;;;;;;6308206;22;20011;-85
2023/01/04 01:31:35;;;;;;;7.63;2.88;;;;;;;;;;6308166;22;20023;-86
2023/01/04 01:34:20;;;;;;;11.57;3.38;;;;;;;;;;6306556;22;20330;-86
2023/01/04 01:37:04;;;;;;;7.43;3.03;;;;;;;;;;6307188;22;20393;-86
2023/01/04 01:39:49;;;;;;;8.65;3.63;;;;;;;;;;6308186;22;20014;-88
2023/01/04 01:42:34;;;;;;;7.90;3.15;;;;;;;;;;6308323;22;20094;-86
2023/01/04 01:45:26;;;;;;;7.10;2.92;;;;;;;;;;6307321;22;20449;-85
2023/01/04 01:48:14;;;;;;;10.82;3.28;;;;;;;;;;6307487;22;20447;-86
2023/01/04 01:51:02;;;;;;;7.60;3.10;;;8.00;99.90;;;;;;6306847;22;20058;-86
2023/01/04 01:53:51;;;;;;;7.03;3.47;;;8.00;99.90;;;;;;6307946;22;20030;-85
2023/01/04 01:56:38;;;;;;;8.85;3.25;;;8.00;99.90;;;;;;6308391;22;20500;-87
2023/01/04 01:59:23;;;;;;;8.60;3.28;;;;;;;;;;6306095;22;20061;-86
2023/01/04 02:02:08;;;;;;;11.00;3.67;;;;;;;;;;6284278;22;20388;-86
2023/01/04 02:04:54;;;;;;;5.07;3.45;;;8.00;99.90;;;;;;6307972;22;20333;-87
2023/01/04 02:07:38;;;;;;;11.50;3.13;;;;;;;;;;6306813;22;20026;-85
2023/01/04 02:10:23;;;;;;;6.47;2.97;;;;;;;;;;6305948;22;20014;-86
2023/01/04 02:13:10;;;;;;;9.07;3.45;;;;;;;;;;6305967;22;20015;-87
2023/01/04 02:15:55;;;;;;;6.40;3.22;;;;;;;;;;6306317;22;20042;-87
2023/01/04 02:18:56;;;;;;;8.32;3.05;;;8.00;99.90;;;;;;6306484;22;20061;-86
2023/01/04 02:22:17;;;;;;;12.23;3.63;;;8.00;99.90;;;;;;6306393;22;20014;-87
2023/01/04 02:25:04;;;;;;;7.70;3.20;;;;;;;;;;6219573;22;20018;-88
2023/01/04 02:28:15;;;;;;;6.93;3.17;;;8.10;99.90;;;;;;6307411;22;20069;-87
2023/01/04 02:31:15;;;;;;;8.25;3.00;;;;;;;;;;6306453;22;20094;-87
2023/01/04 02:34:07;;;;;;;4.55;2.20;;;8.10;99.90;;;;;;6306471;22;20095;-86
2023/01/04 02:37:22;;;;;;;7.85;2.92;;;8.10;99.90;;;;;;6308007;22;20052;-88
2023/01/04 02:40:30;;;;;;;7.38;2.70;;;8.20;99.90;;;;;;6307609;22;20064;-87
2023/01/04 02:46:28;;;;;;;5.03;2.35;;;8.10;99.90;;;;;;6306992;22;20018;-87
2023/01/04 02:52:17;;;;;;;4.05;2.28;;;;;;;;;;6305902;22;20030;-87
2023/01/04 02:55:05;;;;;;;5.88;2.38;;;8.20;99.90;;;;;;6305764;22;20077;-88
2023/01/04 02:58:04;;;;;;;5.15;2.05;;;;;;;;;;6306203;22;20469;-89
2023/01/04 03:07:30;;;;;;;5.53;1.95;;;8.30;99.90;;;;;;6306517;22;20057;-89
2023/01/04 03:10:14;;;;;;;3.65;2.33;;;;;;;;;;6306687;22;20389;-89
2023/01/04 03:13:24;;;;;;;6.03;2.03;;;8.30;99.90;;;;;;6304827;22;20026;-89
2023/01/04 03:16:11;;;;;;;3.88;2.50;;;;;;;;;;6307062;22;20013;-88
2023/01/04 03:18:57;;;;;;;7.28;2.20;;;8.40;99.90;;;;;;6306855;22;20083;-87
2023/01/04 03:21:44;;;;;;;3.45;1.88;;;8.50;99.90;;;;;;6283739;22;20338;-88
2023/01/04 03:37:28;;;;;;;4.32;1.70;;;8.70;99.90;;;;;;6306052;22;20058;-88
2023/01/04 03:49:56;;;;;;;3.75;2.03;;;8.90;99.90;;;;;;6306828;22;20033;-86
2023/01/04 03:52:43;;;;;;;3.10;1.98;;;8.90;99.90;;;;;;6306255;22;20507;-87
2023/01/04 03:55:29;;;;;;;4.72;2.10;;;9.00;99.90;;;;;;6306353;22;20108;-86
2023/01/04 03:58:14;;;;;;;3.15;2.20;;;;;;;;;;6283981;22;20017;-87
2023/01/04 04:01:04;;;;;;;2.80;1.80;;;9.10;99.90;;;;;;6306384;22;20018;-87
2023/01/04 04:09:56;;;;;;;3.63;2.30;;;;;;;;;;6306719;22;20034;-87
2023/01/04 04:12:40;;;;;;;3.22;2.30;;;;;;;;;;6306151;22;20390;-86
2023/01/04 04:15:25;;;;;;;3.22;1.70;;;;;;;;;;6305001;22;20030;-88
2023/01/04 04:18:09;;;;;;;3.30;1.85;;;;;;;;;;6306445;22;20013;-86
2023/01/04 04:20:57;;;;;;;2.85;1.85;;;9.50;99.90;;;;;;6283634;22;20090;-86
2023/01/04 04:23:42;;;;;;;3.40;2.42;;;;;;;;;;6306206;22;20399;-86
2023/01/04 04:26:27;;;;;;;4.82;2.33;;;;;;;;;;6304945;22;20057;-85
2023/01/04 04:29:12;;;;;;;3.92;2.63;;;;;;;;;;6305539;22;20015;-86
2023/01/04 04:31:56;;;;;;;3.42;2.40;;;;;;;;;;6305214;22;20022;-85
2023/01/04 04:34:41;;;;;;;3.85;2.03;;;;;;;;;;6304901;22;20381;-86
2023/01/04 04:37:29;;;;;;;3.40;2.53;;;;;;;;;;6305538;22;20393;-87
2023/01/04 04:43:17;;;;;;;4.70;2.50;;;;;;;;;;6305406;22;20053;-86
2023/01/04 04:46:01;;;;;;;3.53;2.60;;;;;;;;;;6305266;22;20030;-87
2023/01/04 04:48:46;;;;;;;4.10;2.58;;;;;;;;;;6282988;22;20018;-87
2023/01/04 04:51:30;;;;;;;4.60;2.65;;;;;;;;;;6306202;22;20018;-87
2023/01/04 04:54:17;;;;;;;3.92;2.65;;;9.80;99.90;;;;;;6306472;22;20093;-87
2023/01/04 04:57:02;;;;;;;3.72;2.90;;;;;;;;;;6306879;22;20069;-87
2023/01/04 04:59:46;;;;;;;3.75;2.75;;;;;;;;;;6305956;22;20077;-86
2023/01/04 05:02:31;;;;;;;3.45;2.63;;;;;;;;;;6304747;22;20034;-86
2023/01/04 05:05:15;;;;;;;3.83;2.95;;;;;;;;;;6306514;22;20021;-86
2023/01/04 05:08:00;;;;;;;5.18;3.22;;;;;;;;;;6305438;22;20101;-86
2023/01/04 05:10:45;;;;;;;4.18;2.95;;;;;;;;;;6305265;22;20456;-87
2023/01/04 05:13:29;;;;;;;4.65;2.88;;;;;;;;;;6308371;22;20010;-87
2023/01/04 05:16:14;;;;;;;4.53;3.40;;;;;;;;;;6308258;22;20014;-86
2023/01/04 05:18:58;;;;;;;3.55;2.70;;;;;;;;;;6307163;22;20050;-86
2023/01/04 05:21:43;;;;;;;4.85;3.28;;;;;;;;;;6284700;22;20460;-86
2023/01/04 05:24:27;;;;;;;4.25;3.10;;;;;;;;;;6308200;22;20061;-87
2023/01/04 05:27:12;;;;;;;4.72;3.47;;;;;;;;;;6307085;22;20010;-86
2023/01/04 05:33:00;;;;;;;3.92;2.90;;;;;;;;;;6308054;22;20461;-87
2023/01/04 05:35:45;;;;;;;3.80;3.08;;;;;;;;;;6307705;22;20014;-85
2023/01/04 05:38:30;;;;;;;3.83;3.03;;;;;;;;;;6308127;22;20011;-85
2023/01/04 05:44:18;;;;;;;4.00;3.03;;;;;;;;;;6308278;22;20463;-85
2023/01/04 05:47:03;;;;;;;4.97;3.30;;;;;;;;;;6308005;22;20388;-86
2023/01/04 05:49:48;;;;;;;7.03;3.65;;;;;;;;;;6284253;22;20017;-86
2023/01/04 05:52:33;;;;;;;5.45;3.42;;;;;;;;;;6305812;22;20337;-85
2023/01/04 05:55:18;;;;;;;6.18;3.63;;;;;;;;;;6306442;22;20022;-85
2023/01/04 05:58:03;;;;;;;6.45;3.92;;;;;;;;;;6306607;22;20018;-88
2023/01/04 06:00:47;;;;;;;5.80;3.53;;;;;;;;;;6304643;22;20018;-85
2023/01/04 06:03:32;;;;;;;4.50;3.40;;;;;;;;;;6283916;22;20018;-87
2023/01/04 06:06:16;;;;;;;5.18;3.30;;;;;;;;;;6305001;22;20057;-87
2023/01/04 06:09:01;;;;;;;6.45;3.70;;;;;;;;;;6305428;22;20576;-86
2023/01/04 06:11:45;;;;;;;4.47;3.33;;;;;;;;;;6305345;22;20054;-84
2023/01/04 06:14:30;;;;;;;5.00;3.83;;;;;;;;;;6307060;22;20341;-85
2023/01/04 06:17:14;;;;;;;6.18;3.25;;;;;;;;;;6306375;22;20021;-87
2023/01/04 06:19:59;;;;;;;5.63;3.40;;;;;;;;;;6305475;22;20015;-85
2023/01/04 06:22:43;;;;;;;6.93;3.80;;;;;;;;;;6306376;22;20018;-90
2023/01/04 06:25:28;;;;;;;6.18;4.05;;;;;;;;;;6305974;22;20017;-87
2023/01/04 06:28:12;;;;;;;4.68;3.38;;;;;;;;;;6305423;22;20050;-86
2023/01/04 06:30:57;;;;;;;7.38;3.92;;;;;;;;;;6306451;22;20113;-88
2023/01/04 06:33:42;;;;;;;4.40;2.75;;;;;;;;;;6305792;22;20342;-85
2023/01/04 06:36:26;;;;;;;6.35;2.85;;;;;;;;;;6283831;22;20307;-89
2023/01/04 06:39:11;;;;;;;6.60;2.72;;;;;;;;;;6307205;22;20014;-88
2023/01/04 06:41:56;;;;;;;4.88;2.80;;;;;;;;;;6305189;22;20017;-88
2023/01/04 06:44:40;;;;;;;4.22;2.40;;;;;;;;;;6306781;22;20448;-87
2023/01/04 06:47:25;;;;;;;4.03;2.30;;;;;;;;;;6307069;22;20011;-88
2023/01/04 06:50:10;;;;;;;5.25;2.33;;;;;;;;;;6306403;22;20013;-85
2023/01/04 06:52:55;;;;;;;2.83;2.00;;;;;;;;;;6283570;22;20444;-87
2023/01/04 06:55:39;;;;;;;4.93;2.10;;;;;;;;;;6283500;22;20026;-87
2023/01/04 06:58:24;;;;;;;3.92;2.20;;;;;;;;;;6305665;22;20018;-87
2023/01/04 07:01:08;;;;;;;3.72;2.25;;;;;;;;;;6304983;22;20488;-86
2023/01/04 07:03:53;;;;;;;3.13;2.00;;;;;;;;;;6306073;22;20052;-87
2023/01/04 07:06:37;;;;;;;3.00;1.90;;;;;;;;;;6306950;22;20014;-87
2023/01/04 07:09:22;;;;;;;2.90;2.10;;;;;;;;;;6306513;22;20060;-87
2023/01/04 07:12:06;;;;;;;3.95;2.00;;;;;;;;;;6304978;22;20472;-87
2023/01/04 07:14:51;;;;;;;3.67;1.67;;;;;;;;;;6304763;22;20061;-86
2023/01/04 07:17:36;;;;;;;3.58;1.88;;;;;;;;;;6305609;22;20061;-87
2023/01/04 07:20:20;;;;;;;3.78;2.03;;;;;;;;;;6305475;22;20057;-86
2023/01/04 07:23:05;;;;;;;3.40;1.77;;;10.70;99.90;;;;;;6304659;22;20018;-86
2023/01/04 07:25:50;;;;;;;3.08;1.90;;;;;;;;;;6306327;22;20013;-88
2023/01/04 07:31:38;;;;;;;2.92;1.98;;;;;;;;;;6306397;22;20021;-85
2023/01/04 07:34:24;;;;;;;2.88;1.75;;;10.80;99.90;;;;;;6306177;22;20091;-86
2023/01/04 07:37:08;;;;;;;3.38;2.13;;;;;;;;;;6304553;22;20440;-86
2023/01/04 07:39:53;;;;;;;3.03;1.98;;;;;;;;;;6283206;22;20092;-89
2023/01/04 07:42:38;;;;;;;3.90;1.58;;;;;;;;;;6283248;22;20038;-86
2023/01/04 07:45:22;;;;;;;2.67;1.80;;;;;;;;;;6305100;22;20342;-86
2023/01/04 07:48:06;;;;;;;3.17;1.70;;;;;;;;;;6304636;22;20393;-88
2023/01/04 07:50:51;;;;;;;3.20;1.80;;;;;;;;;;6304965;22;20014;-84
2023/01/04 07:53:36;;;;;;;2.95;1.88;;;;;;;;;;6305084;22;20060;-87
2023/01/04 07:56:20;;;;;;;2.85;1.80;;;;;;;;;;6304847;22;20376;-87
2023/01/04 07:59:06;;;;;;;3.90;1.90;;;10.80;99.90;;;;;;6304570;22;20334;-88
2023/01/04 08:01:51;;;;;;;3.55;1.95;;;;;;;;;;6304332;22;20073;-85
2023/01/04 08:04:36;;;;;;;3.50;1.77;;;;;;;;;;6304648;22;20026;-86
2023/01/04 08:07:20;;;;;;;2.85;1.55;;;;;;;;;;6304567;22;20053;-86
2023/01/04 08:10:05;;;;;;;3.20;1.92;;;;;;;;;;6304703;22;20038;-88
2023/01/04 08:12:50;;;;;;;39.90;3.40;;;;;;;;;;6306136;22;20377;-88
2023/01/04 08:15:35;;;;;;;5.60;2.40;;;;;;;;;;6306405;22;20062;-91
2023/01/04 08:18:20;;;;;;;3.92;1.90;;;;;;;;;;6304377;22;20057;-85
2023/01/04 08:21:07;;;;;;;5.10;2.58;;;10.90;99.90;;;;;;6305534;22;20018;-88
2023/01/04 08:23:52;;;;;;;4.28;2.30;;;10.90;99.90;;;;;;6306458;22;20015;-87
2023/01/04 08:26:37;;;;;;;4.10;2.97;;;;;;;;;;6305659;22;20464;-87
2023/01/04 08:29:21;;;;;;;3.88;2.85;;;;;;;;;;6304062;22;20342;-86
2023/01/04 08:32:06;;;;;;;5.93;2.80;;;;;;;;;;6304767;22;20015;-88
2023/01/04 08:34:50;;;;;;;5.75;3.15;;;;;;;;;;6306585;22;20014;-88
2023/01/04 08:37:35;;;;;;;4.15;2.50;;;;;;;;;;6306526;22;20010;-87
2023/01/04 08:40:19;;;;;;;4.38;3.08;;;;;;;;;;6282872;22;20046;-85
2023/01/04 08:43:04;;;;;;;4.95;2.30;;;;;;;;;;6304677;22;20018;-86
2023/01/04 08:45:48;;;;;;;4.07;2.40;;;;;;;;;;6305946;22;20014;-87
2023/01/04 08:48:33;;;;;;;4.55;2.03;;;;;;;;;;6308605;22;20386;-87
2023/01/04 08:51:18;;;;;;;4.15;2.22;;;;;;;;;;6307931;22;20091;-87
2023/01/04 08:54:02;;;;;;;5.10;2.38;;;;;;;;;;6307988;22;20018;-88
2023/01/04 08:56:47;;;;;;;3.28;2.10;;;;;;;;;;6307011;22;20045;-85
2023/01/04 08:59:31;;;;;;;3.55;2.10;;;;;;;;;;6308469;22;20484;-85
2023/01/04 09:02:25;;;;;;;3.13;2.08;;;11.00;99.90;;;;;;6306638;22;20062;-87
2023/01/04 09:05:09;;;;;;;3.30;1.75;;;;;;;;;;6306628;22;20384;-86
2023/01/04 09:07:54;;;;;;;3.58;1.95;;;;;;;;;;6308389;22;20014;-88
2023/01/04 09:10:38;;;;;;;3.38;2.00;;;;;;;;;;6307059;22;20094;-85
2023/01/04 09:13:23;;;;;;;4.15;1.73;;;;;;;;;;6307090;22;20444;-86
2023/01/04 09:16:16;;;;;;;3.58;1.65;;;11.10;99.90;;;;;;6307313;22;20019;-89
2023/01/04 09:19:01;;;;;;;3.88;1.50;;;;;;;;;;6308184;22;20433;-88
2023/01/04 09:21:45;;;;;;;3.05;1.35;;;;;;;;;;6307839;22;20341;-85
2023/01/04 09:24:32;;;;;;;3.20;1.42;;;11.10;99.90;;;;;;6306100;22;20023;-86
2023/01/04 09:27:17;;;;;;;1.98;1.30;;;;;;;;;;6306055;22;20022;-87
2023/01/04 09:30:02;;;;;;;1.75;1.20;;;;;;;;;;6307755;22;20014;-86
2023/01/04 09:32:46;;;;;;;1.83;1.20;;;;;;;;;;6306709;22;20363;-84
2023/01/04 09:35:32;;;;;;;2.30;1.30;;;;;;;;;;6284426;22;20030;-85
2023/01/04 09:38:17;;;;;;;2.75;1.30;;;;;;;;;;6307019;22;20511;-84
2023/01/04 09:41:01;;;;;;;2.42;1.42;;;;;;;;;;6306381;22;20407;-84
2023/01/04 09:43:46;;;;;;;2.40;1.45;;;;;;;;;;6306407;22;20030;-85
2023/01/04 09:46:39;;;;;;;9.25;2.22;;;11.20;99.90;;;;;;6305806;22;20018;-85
2023/01/04 09:49:27;;;;;;;3.05;1.67;;;;;;;;;;6307103;22;20014;-85
2023/01/04 09:52:42;;;;;;;5.47;2.20;;;10.80;99.90;;;;;;6305874;22;20129;-87
2023/01/04 09:55:28;;;;;;;;;;;11.30;99.90;;;;;;6307414;22;20107;-84
2023/01/04 09:58:12;;;;;;;4.35;1.90;;;;;;;;;;6306907;22;19909;-88
2023/01/04 10:01:21;;;;;;;6.07;2.50;;;11.30;99.90;;;;;;6306063;22;20389;-85
2023/01/04 10:04:22;;;;;;;5.88;2.28;;;11.00;99.90;;;;;;6307455;22;20022;-85
2023/01/04 10:07:23;;;;;;;5.47;2.25;;;11.40;99.90;;;;;;6307389;22;20069;-85
2023/01/04 10:10:16;;;;;;;8.70;2.50;;;11.40;99.90;;;;;;6307418;22;20500;-86
2023/01/04 10:13:21;;;;;;;11.50;2.57;;;11.20;99.90;;;;;;6310543;22;20014;-87
2023/01/04 10:16:06;;;;;;;11.40;3.15;;;;;;;;;;6307642;22;20013;-85
2023/01/04 10:19:36;;;;;;;10.88;2.90;;;11.50;99.90;;;;;;6306367;22;20010;-85
2023/01/04 10:22:38;;;;;;;11.10;3.45;;;11.50;99.90;;;;;;6227535;22;20101;-84
2023/01/04 10:25:43;;;;;;;17.30;3.03;;;;;;;;;;6305207;22;20077;-85
2023/01/04 10:28:28;;;;;;;8.25;2.88;;;;;;;;;;6306624;22;20013;-86
2023/01/04 10:31:15;;;;;;;16.70;3.83;;;11.50;99.90;;;;;;6306095;22;20326;-87
2023/01/04 10:34:22;;;;;;;21.98;4.15;;;11.60;99.90;;;;;;6307306;22;20493;-85
2023/01/04 10:37:22;;;;;;;15.38;3.47;;;11.60;99.90;;;;;;6307032;22;20065;-84
2023/01/04 10:40:13;;;;;;;18.17;4.43;;;11.60;99.90;;;;;;6307098;22;20069;-84
2023/01/04 10:43:06;;;;;;;22.48;4.72;;;11.60;99.90;;;;;;6306821;22;20014;-85
2023/01/04 10:45:50;;;;;;;14.50;3.05;;;;;;;;;;6306643;22;20019;-86
2023/01/04 10:48:44;;;;;;;24.23;4.90;;;11.70;99.90;;;;;;6306324;22;20013;-86
2023/01/04 10:51:41;;;;;;;;;;;11.70;99.90;;;;;;6306965;22;20393;-85
2023/01/04 10:54:38;;;;;;;17.35;4.03;;;;;;;;;;6305133;22;19989;-86
2023/01/04 10:57:47;;;;;;;25.38;4.22;;;11.30;99.90;;;;;;6306485;22;20022;-86
2023/01/04 11:00:49;;;;;;;22.05;6.70;;;11.80;99.90;;;;;;6304950;22;20014;-85
2023/01/04 11:03:54;;;;;;;28.13;5.63;;;11.80;99.90;;;;;;6305092;22;20337;-86
2023/01/04 11:06:45;;;;;;;24.65;5.43;;;11.80;99.90;;;;;;6306187;22;20388;-85
2023/01/04 11:09:38;;;;;;;21.45;4.75;;;11.80;99.90;;;;;;6299134;22;20449;-85
2023/01/04 11:12:23;;;;;;;22.25;5.25;;;;;;;;;;6304254;22;20086;-89
2023/01/04 11:15:08;;;;;;;20.83;4.80;;;;;;;;;;6300446;22;20345;-87
2023/01/04 11:17:53;;;;;;;26.15;4.32;;;;;;;;;;6303722;22;20014;-87
2023/01/04 11:20:37;;;;;;;23.95;4.60;;;;;;;;;;6305708;22;20341;-86
2023/01/04 11:23:22;;;;;;;31.17;4.97;;;;;;;;;;6305189;22;20014;-85
2023/01/04 11:26:14;;;;;;;25.08;4.53;;;12.00;99.90;;;;;;6306047;22;20023;-89
2023/01/04 11:29:05;;;;;;;28.02;6.20;;;12.40;99.90;;;;;;6306665;22;20069;-89
2023/01/04 11:31:55;;;;;;;25.42;5.97;;;12.00;99.90;;;;;;6305778;22;20061;-88
2023/01/04 11:34:46;;;;;;;26.85;5.43;;;12.00;99.90;;;;;;6306243;22;20061;-90
2023/01/04 11:37:38;;;;;;;25.42;4.97;;;12.00;99.90;;;;;;6305910;22;20034;-85
2023/01/04 11:40:24;;;;;;;20.13;4.43;;;12.40;99.90;;;;;;6304787;22;20057;-85
2023/01/04 11:43:19;;;;;;;18.95;4.22;;;12.10;99.90;;;;;;6306195;22;20104;-85
2023/01/04 11:46:23;;;;;;;18.45;4.53;;;12.10;99.90;;;;;;6306467;22;20453;-86
2023/01/04 11:49:18;;;;;;;22.52;4.18;;;12.00;99.90;;;;;;6306668;22;20010;-84
2023/01/04 11:52:04;;;;;;;20.35;4.68;;;12.10;99.90;;;;;;6305336;22;20037;-87
2023/01/04 11:54:48;;;;;;;25.40;3.95;;;12.40;99.90;;;;;;6305697;22;20042;-86
2023/01/04 11:57:34;;;;;;;20.38;5.10;;;;;;;;;;6305666;22;20050;-86
2023/01/04 12:00:18;;;;;;;30.63;6.43;;;;;;;;;;6305172;22;20393;-85
2023/01/04 12:03:14;;;;;;;20.55;3.67;;;12.10;99.90;;;;;;6306477;22;20342;-87
2023/01/04 12:05:59;;;;;;;19.33;3.83;;;;;;;;;;6305157;22;20068;-87
2023/01/04 12:08:43;;;;;;;23.70;5.80;;;;;;;;;;6304440;22;20064;-86
2023/01/04 12:11:38;;;;;;;17.23;3.63;;;12.10;99.90;;;;;;6306183;22;20046;-88
2023/01/04 12:14:31;;;;;;;19.77;3.47;;;12.00;99.90;;;;;;6306246;22;20014;-87
2023/01/04 12:17:34;;;;;;;16.05;2.75;;;12.20;99.90;;;;;;6304890;22;20065;-90
2023/01/04 12:20:22;;;;;;;11.88;3.08;;;12.20;99.90;;;;;;6305263;22;20060;-87
2023/01/04 12:23:09;;;;;;;14.68;2.80;;;12.20;99.90;;;;;;6285919;22;20389;-87
2023/01/04 12:25:54;;;;;;;15.93;3.33;;;;;;;;;;6306524;22;20015;-90
2023/01/04 12:28:43;;;;;;;14.70;3.00;;;12.20;99.90;;;;;;6306683;22;20065;-86
2023/01/04 12:31:28;;;;;;;11.60;2.50;;;12.20;99.90;;;;;;6308282;22;20023;-87
2023/01/04 12:34:12;;;;;;;9.13;2.05;;;;;;;;;;6308388;22;20013;-85
2023/01/04 12:37:02;;;;;;;7.10;1.88;;;11.80;99.90;;;;;;6307923;22;20064;-87
2023/01/04 12:39:46;;;;;;;6.65;1.70;;;;;;;;;;6304364;22;20077;-87
2023/01/04 12:42:31;;;;;;;9.48;1.77;;;;;;;;;;6305867;22;20073;-86
2023/01/04 12:45:19;;;;;;;9.85;1.80;;;12.20;99.90;;;;;;6306168;22;20042;-87
2023/01/04 12:51:30;;;;;;;7.88;2.50;;;;;;;;;;6308634;22;20396;-85
2023/01/04 12:54:46;;;;;;;8.25;1.67;;;10.40;99.90;;;;;;6307506;22;20094;-85
2023/01/04 12:57:32;;;;;;;6.35;1.70;;;12.10;99.90;;;;;;6308530;22;20023;-87
2023/01/04 13:00:17;;;;;;;8.63;1.75;;;;;;;;;;6308701;22;20037;-86
2023/01/04 13:03:16;;;;;;;10.10;2.53;;;12.00;99.90;;;;;;6308539;22;20034;-87
2023/01/04 13:06:04;;;;;;;9.93;2.17;;;12.10;99.90;;;;;;6307213;22;20057;-85
2023/01/04 13:08:51;;;;;;;15.13;2.88;;;12.00;99.90;;;;;;6306927;22;20452;-88
2023/01/04 13:12:03;;;;;;;12.45;2.92;;;12.00;99.90;;;;;;6308614;22;20015;-87
2023/01/04 13:14:58;;;;;;;13.60;2.80;;;12.00;99.90;;;;;;6307899;22;20010;-88
2023/01/04 13:17:42;;;;;;;16.48;3.03;;;;;;;;;;6307872;22;20014;-85
2023/01/04 13:20:29;;;;;;;12.95;3.22;;;;;;;;;;6307030;22;20013;-86
2023/01/04 13:23:14;;;;;;;18.13;4.07;;;;;;;;;;6308235;22;20402;-87
2023/01/04 13:26:30;;;;;;;12.07;3.47;;;12.00;99.90;;;;;;6306579;22;20172;-87
2023/01/04 13:29:26;;;;;;;13.85;3.13;;;12.00;99.90;;;;;;6307370;22;20432;-88
2023/01/04 13:32:14;;;;;;;18.45;4.00;;;12.00;99.90;;;;;;6308261;22;20100;-86
2023/01/04 13:35:10;;;;;;;14.15;2.63;;;12.00;99.90;;;;;;6307656;22;20061;-86
2023/01/04 13:37:55;;;;;;;18.23;4.05;;;;;;;;;;6307824;22;20014;-86
2023/01/04 13:40:43;;;;;;;18.17;3.25;;;;;;;;;;6306972;22;20338;-87
2023/01/04 13:44:05;;;;;;;23.58;4.28;;;12.10;99.90;;;;;;6308233;22;20023;-88
2023/01/04 13:46:53;;;;;;;25.80;4.40;;;12.00;99.90;;;;;;6307663;22;20013;-86
2023/01/04 13:49:39;;;;;;;17.38;3.17;;;12.00;99.90;;;;;;6307029;22;20011;-86
2023/01/04 13:52:25;;;;;;;20.52;4.43;;;12.00;99.90;;;;;;6306883;22;20091;-87
2023/01/04 13:55:10;;;;;;;21.02;4.25;;;;;;;;;;6306809;22;20109;-88
2023/01/04 13:57:59;;;;;;;23.80;5.22;;;12.00;99.90;;;;;;6306559;22;20453;-86
2023/01/04 14:00:53;;;;;;;20.58;3.88;;;12.00;99.90;;;;;;6284452;22;20156;-92
2023/01/04 14:03:46;;;;;;;20.05;3.85;;;12.00;99.90;;;;;;6308010;22;20448;-89
2023/01/04 14:06:35;;;;;;;34.00;6.05;;;12.00;99.90;;;;;;6308013;22;20011;-88
2023/01/04 14:09:46;;;;;;;25.95;3.95;;;12.00;99.90;;;;;;6306737;22;20069;-88
2023/01/04 14:12:31;;;;;;;13.05;3.80;;;;;;;;;;6307724;22;20014;-87
2023/01/04 14:15:21;;;;;;;16.38;4.18;;;11.90;99.90;;;;;;6307994;22;20077;-87
2023/01/04 14:18:24;;;;;;;17.65;3.35;;;11.90;99.90;;;;;;6307594;22;20301;-88
2023/01/04 14:21:16;;;;;;;17.17;3.23;;;11.90;99.90;;;;;;6307364;22;20082;-89
2023/01/04 14:24:01;;;;;;;23.15;3.95;;;;;;;;;;6307533;22;20221;-88
2023/01/04 14:26:45;;;;;;;21.65;4.50;;;;;;;;;;6306630;22;20330;-86
2023/01/04 14:29:31;;;;;;;17.63;3.72;;;;;;;;;;6285022;22;20018;-87
2023/01/04 14:32:15;;;;;;;25.77;4.95;;;;;;;;;;6307731;22;20022;-88
2023/01/04 14:35:10;;;;;;;25.30;3.92;;;11.90;99.90;;;;;;6307196;22;20013;-87
2023/01/04 14:38:01;;;;;;;25.70;4.78;;;11.90;99.90;;;;;;6306052;22;20009;-88
2023/01/04 14:40:46;;;;;;;18.50;3.70;;;;;;;;;;6307495;22;20021;-88
2023/01/04 14:43:43;;;;;;;19.58;3.72;;;11.60;99.90;;;;;;6306157;22;20018;-87
2023/01/04 14:46:29;;;;;;;21.45;4.40;;;11.90;99.90;;;;;;6307715;22;20130;-87
2023/01/04 14:49:14;;;;;;;18.80;4.22;;;11.80;99.90;;;;;;6305938;22;20104;-87
2023/01/04 14:51:59;;;;;;;17.45;3.67;;;;;;;;;;6305269;22;20023;-90
2023/01/04 14:54:44;;;;;;;22.40;3.63;;;;;;;;;;6304928;22;20189;-89
2023/01/04 14:57:28;;;;;;;21.08;3.65;;;;;;;;;;6305509;22;20022;-91
2023/01/04 15:00:15;;;;;;;19.73;3.90;;;11.80;99.90;;;;;;6302570;22;20018;-92
2023/01/04 15:02:59;;;;;;;17.65;3.65;;;;;;;;;;6304812;22;20014;-87
2023/01/04 15:05:45;;;;;;;14.00;3.53;;;11.80;99.90;;;;;;6306936;22;20014;-86
2023/01/04 15:08:29;;;;;;;20.30;3.55;;;;;;;;;;6284032;22;20045;-86
2023/01/04 15:11:16;;;;;;;25.15;3.80;;;;;;;;;;6306890;22;20511;-86
2023/01/04 15:14:01;;;;;;;20.50;4.10;;;;;;;;;;6306717;22;20050;-86
2023/01/04 15:16:45;;;;;;;19.02;3.60;;;;;;;;;;6307162;22;20448;-86
2023/01/04 15:19:30;;;;;;;22.98;5.32;;;;;;;;;;6262443;22;20018;-86
2023/01/04 15:22:14;;;;;;;19.33;4.32;;;;;;;;;;6261946;22;20018;-87
2023/01/04 15:24:59;;;;;;;18.50;3.22;;;;;;;;;;6283563;22;20048;-87
2023/01/04 15:27:43;;;;;;;20.05;3.75;;;;;;;;;;6262676;22;20073;-88
2023/01/04 15:30:28;;;;;;;14.63;3.63;;;;;;;;;;6262524;22;20065;-87
2023/01/04 15:33:12;;;;;;;19.88;3.85;;;;;;;;;;6283542;22;20014;-87
2023/01/04 15:35:58;;;;;;;18.90;4.38;;;11.80;99.90;;;;;;6306758;22;20065;-91
2023/01/04 15:38:43;;;;;;;15.68;3.97;;;;;;;;;;6283753;22;20093;-86
2023/01/04 15:44:31;;;;;;;17.15;3.40;;;;;;;;;;6307261;22;20065;-86
2023/01/04 15:47:16;;;;;;;16.90;4.28;;;;;;;;;;6306470;22;20087;-87
2023/01/04 15:50:00;;;;;;;21.17;5.47;;;;;;;;;;6306569;22;20014;-86
2023/01/04 15:52:45;;;;;;;21.20;3.67;;;;;;;;;;6306641;22;20121;-88
2023/01/04 15:55:31;;;;;;;23.58;4.53;;;11.80;99.90;;;;;;6306328;22;20014;-88
2023/01/04 15:58:15;;;;;;;28.98;4.95;;;;;;;;;;6306515;22;20080;-85
2023/01/04 16:01:07;;;;;;;15.23;3.33;;;11.70;99.90;;;;;;6283748;22;20099;-86
2023/01/04 16:03:52;;;;;;;21.30;4.95;;;;;;;;;;6306986;22;20068;-86
2023/01/04 16:06:37;;;;;;;20.45;3.95;;;;;;;;;;6283969;22;20010;-87
2023/01/04 16:09:21;;;;;;;26.60;5.70;;;;;;;;;;6283116;22;20463;-85
2023/01/04 16:15:20;;;;;;;17.92;3.50;;;;;;;;;;6306415;22;20096;-87
2023/01/04 16:18:04;;;;;;;18.55;3.78;;;;;;;;;;6306316;22;20459;-87
2023/01/04 16:20:49;;;;;;;20.15;3.70;;;;;;;;;;6306650;22;20071;-84
2023/01/04 16:23:34;;;;;;;20.65;4.03;;;11.70;99.90;;;;;;6306491;22;20532;-86
2023/01/04 16:26:18;;;;;;;20.15;4.68;;;;;;;;;;6305654;22;20121;-86
2023/01/04 16:29:03;;;;;;;20.17;4.72;;;;;;;;;;6283738;22;20453;-86
2023/01/04 16:31:47;;;;;;;21.00;4.97;;;;;;;;;;6306633;22;20022;-91
2023/01/04 16:34:32;;;;;;;15.48;3.78;;;;;;;;;;6283646;22;20334;-89
2023/01/04 16:37:17;;;;;;;19.23;4.50;;;;;;;;;;6306234;22;20018;-88
2023/01/04 16:40:01;;;;;;;19.38;3.38;;;;;;;;;;6283241;22;20011;-85
2023/01/04 16:42:50;;;;;;;24.00;3.92;;;;;;;;;;6283768;22;20094;-90
2023/01/04 16:45:34;;;;;;;20.73;4.38;;;;;;;;;;6306670;22;20017;-89
2023/01/04 16:48:19;;;;;;;25.92;3.97;;;;;;;;;;6261624;22;20117;-86
2023/01/04 16:51:03;;;;;;;17.25;3.38;;;;;;;;;;6306704;22;20068;-84
2023/01/04 16:53:48;;;;;;;27.90;5.07;;;;;;;;;;6261738;22;20017;-85
2023/01/04 16:56:33;;;;;;;17.75;3.90;;;;;;;;;;6283266;22;20333;-86
2023/01/04 16:59:18;;;;;;;19.95;3.80;;;;;;;;;;6306353;22;20014;-86